Briefing drone pour Echirolles

Rechercher une autre localisation

Conditions de vol :


Nous sommes le : Mardi 22 juin 2021
Il est 22:58 UTC (00:58 LT)

Lever de soleil : 03:24 UTC (05:24 LT)
Coucher de soleil : 19:54 UTC (21:54 LT)

Météo

L'essentiel des conditions de vol

VIGILANCE MÉTÉO FRANCE - Isère (38)
Vigilance Jaune : Orages
CARTE TEMSI
CARTES DES FRONTS
METAR de LFLS
LFLS 212230Z AUTO 07004KT CAVOK 17/15 Q1011 TEMPO VRB15G30KT 2000 TSRA SCT010 BKN030CB

Date d'émission: 21/06/2021
Heure d'émission: 22:30 UTC
Vent: 070° pour 4 KT (7 km/h)
Visibilité horizontale: > 10 km
Plafond : Plafond et visibilité OK (CAVOK)
Température: 17 °C
Point de rosée: 15 °C
Humidité: 88%
Pression (QNH): 1011 hPa

Temporairement:

Visibilité horizontale : 2000 m
Plafond :
- Nuages épars à 1000ft (305m)
- Nuages morcelés à 3000ft (914m)
Conditions : Orage de pluie
TAF de LFLS
LFLS 211917Z 2119/2209 CNL

Conditions prévues :

Heure d'émission : Bulletin éffectué le 21 à 19:00 UTC
Prévision : Valide du 21 a 19:00 UTC au 22 a 09:00 UTC
Nuages : à 0ft (0 m)
WEBCAM POUR ECHIROLLES

Réglementation

Voler en sécurité

CARTES AERONAUTIQUE 1/500.000
CARTES VAC (LFLS)
SUP AIP




Chargement des AIP...
NOTAM (ECHIROLLES + Terrain à proximité / FIR )




Chargement des NOTAMS...
CONTACT PREFECTURE 38


Avertissement : Les données mises à disposition sont indicatives. Oxygène Drone ne pourra être tenu responsable de dégâts causés aux biens et aux personnes.